sensor_id;sensor_type;location;lat;lon;timestamp;P1;durP1;ratioP1;P2;durP2;ratioP2
32321;SDS011;61553;48.994;8.940;2022-12-07T00:01:34;14.70;;;8.63;;
32321;SDS011;61553;48.994;8.940;2022-12-07T00:04:01;12.63;;;8.35;;
32321;SDS011;61553;48.994;8.940;2022-12-07T00:09:02;13.38;;;7.95;;
32321;SDS011;61553;48.994;8.940;2022-12-07T00:11:29;13.55;;;8.27;;
32321;SDS011;61553;48.994;8.940;2022-12-07T00:13:55;13.45;;;8.15;;
32321;SDS011;61553;48.994;8.940;2022-12-07T00:16:24;18.17;;;8.77;;
32321;SDS011;61553;48.994;8.940;2022-12-07T00:18:52;14.05;;;7.80;;
32321;SDS011;61553;48.994;8.940;2022-12-07T00:21:21;15.00;;;7.97;;
32321;SDS011;61553;48.994;8.940;2022-12-07T00:23:49;15.48;;;8.40;;
32321;SDS011;61553;48.994;8.940;2022-12-07T00:28:47;13.73;;;8.23;;
32321;SDS011;61553;48.994;8.940;2022-12-07T00:31:13;13.45;;;8.13;;
32321;SDS011;61553;48.994;8.940;2022-12-07T00:33:40;14.52;;;8.25;;
32321;SDS011;61553;48.994;8.940;2022-12-07T00:36:07;12.70;;;7.50;;
32321;SDS011;61553;48.994;8.940;2022-12-07T00:38:35;14.20;;;7.72;;
32321;SDS011;61553;48.994;8.940;2022-12-07T00:41:03;12.60;;;7.90;;
32321;SDS011;61553;48.994;8.940;2022-12-07T00:43:31;15.25;;;7.65;;
32321;SDS011;61553;48.994;8.940;2022-12-07T00:45:57;12.45;;;7.95;;
32321;SDS011;61553;48.994;8.940;2022-12-07T00:48:23;13.27;;;7.80;;
32321;SDS011;61553;48.994;8.940;2022-12-07T00:50:49;16.48;;;8.68;;
32321;SDS011;61553;48.994;8.940;2022-12-07T00:53:15;15.30;;;8.40;;
32321;SDS011;61553;48.994;8.940;2022-12-07T00:55:42;12.25;;;7.35;;
32321;SDS011;61553;48.994;8.940;2022-12-07T00:58:07;17.38;;;8.32;;
32321;SDS011;61553;48.994;8.940;2022-12-07T01:00:34;14.48;;;8.00;;
32321;SDS011;61553;48.994;8.940;2022-12-07T01:03:01;13.95;;;8.07;;
32321;SDS011;61553;48.994;8.940;2022-12-07T01:05:27;14.38;;;8.55;;
32321;SDS011;61553;48.994;8.940;2022-12-07T01:07:52;15.55;;;8.48;;
32321;SDS011;61553;48.994;8.940;2022-12-07T01:10:18;15.45;;;9.00;;
32321;SDS011;61553;48.994;8.940;2022-12-07T01:12:44;15.77;;;9.13;;
32321;SDS011;61553;48.994;8.940;2022-12-07T01:15:10;18.30;;;9.25;;
32321;SDS011;61553;48.994;8.940;2022-12-07T01:17:36;16.80;;;9.30;;
32321;SDS011;61553;48.994;8.940;2022-12-07T01:20:02;16.25;;;9.35;;
32321;SDS011;61553;48.994;8.940;2022-12-07T01:22:28;15.75;;;8.98;;
32321;SDS011;61553;48.994;8.940;2022-12-07T01:24:54;16.38;;;9.15;;
32321;SDS011;61553;48.994;8.940;2022-12-07T01:27:20;16.33;;;9.02;;
32321;SDS011;61553;48.994;8.940;2022-12-07T01:29:46;14.77;;;8.80;;
32321;SDS011;61553;48.994;8.940;2022-12-07T01:32:11;17.02;;;9.52;;
32321;SDS011;61553;48.994;8.940;2022-12-07T01:34:37;13.23;;;8.57;;
32321;SDS011;61553;48.994;8.940;2022-12-07T01:37:03;17.73;;;9.60;;
32321;SDS011;61553;48.994;8.940;2022-12-07T01:39:29;15.98;;;9.05;;
32321;SDS011;61553;48.994;8.940;2022-12-07T01:41:55;14.43;;;8.55;;
32321;SDS011;61553;48.994;8.940;2022-12-07T01:44:27;15.23;;;8.50;;
32321;SDS011;61553;48.994;8.940;2022-12-07T01:47:02;13.30;;;8.35;;
32321;SDS011;61553;48.994;8.940;2022-12-07T01:49:38;15.23;;;8.65;;
32321;SDS011;61553;48.994;8.940;2022-12-07T01:52:15;13.68;;;8.48;;
32321;SDS011;61553;48.994;8.940;2022-12-07T01:54:49;15.70;;;9.18;;
32321;SDS011;61553;48.994;8.940;2022-12-07T01:57:19;13.70;;;9.00;;
32321;SDS011;61553;48.994;8.940;2022-12-07T01:59:47;14.65;;;9.30;;
32321;SDS011;61553;48.994;8.940;2022-12-07T02:02:19;13.20;;;7.65;;
32321;SDS011;61553;48.994;8.940;2022-12-07T02:04:57;15.60;;;9.30;;
32321;SDS011;61553;48.994;8.940;2022-12-07T02:07:25;14.98;;;8.88;;
32321;SDS011;61553;48.994;8.940;2022-12-07T02:09:52;13.20;;;8.45;;
32321;SDS011;61553;48.994;8.940;2022-12-07T02:12:19;14.93;;;9.52;;
32321;SDS011;61553;48.994;8.940;2022-12-07T02:14:45;16.17;;;9.02;;
32321;SDS011;61553;48.994;8.940;2022-12-07T02:17:17;14.43;;;8.63;;
32321;SDS011;61553;48.994;8.940;2022-12-07T02:20:06;17.50;;;9.98;;
32321;SDS011;61553;48.994;8.940;2022-12-07T02:23:18;15.85;;;8.75;;
32321;SDS011;61553;48.994;8.940;2022-12-07T02:28:36;16.88;;;10.20;;
32321;SDS011;61553;48.994;8.940;2022-12-07T02:31:17;14.80;;;8.57;;
32321;SDS011;61553;48.994;8.940;2022-12-07T02:33:46;15.45;;;9.40;;
32321;SDS011;61553;48.994;8.940;2022-12-07T02:36:25;15.63;;;9.82;;
32321;SDS011;61553;48.994;8.940;2022-12-07T02:39:01;16.38;;;9.48;;
32321;SDS011;61553;48.994;8.940;2022-12-07T02:41:43;39.35;;;22.42;;
32321;SDS011;61553;48.994;8.940;2022-12-07T02:44:20;42.60;;;27.02;;
32321;SDS011;61553;48.994;8.940;2022-12-07T02:46:51;21.25;;;14.20;;
32321;SDS011;61553;48.994;8.940;2022-12-07T02:49:21;21.25;;;11.32;;
32321;SDS011;61553;48.994;8.940;2022-12-07T02:51:49;22.23;;;13.57;;
32321;SDS011;61553;48.994;8.940;2022-12-07T02:54:16;26.05;;;14.60;;
32321;SDS011;61553;48.994;8.940;2022-12-07T03:07:11;21.13;;;11.57;;
32321;SDS011;61553;48.994;8.940;2022-12-07T03:09:43;23.60;;;11.98;;
32321;SDS011;61553;48.994;8.940;2022-12-07T03:12:18;21.23;;;11.95;;
32321;SDS011;61553;48.994;8.940;2022-12-07T03:14:55;19.90;;;10.95;;
32321;SDS011;61553;48.994;8.940;2022-12-07T03:17:52;24.70;;;14.43;;
32321;SDS011;61553;48.994;8.940;2022-12-07T03:20:20;19.88;;;11.57;;
32321;SDS011;61553;48.994;8.940;2022-12-07T03:22:48;19.88;;;10.88;;
32321;SDS011;61553;48.994;8.940;2022-12-07T03:25:16;20.98;;;10.98;;
32321;SDS011;61553;48.994;8.940;2022-12-07T03:28:02;18.83;;;11.63;;
32321;SDS011;61553;48.994;8.940;2022-12-07T03:30:39;20.50;;;11.82;;
32321;SDS011;61553;48.994;8.940;2022-12-07T03:33:20;23.60;;;11.77;;
32321;SDS011;61553;48.994;8.940;2022-12-07T03:35:52;17.60;;;10.38;;
32321;SDS011;61553;48.994;8.940;2022-12-07T03:38:21;18.58;;;10.60;;
32321;SDS011;61553;48.994;8.940;2022-12-07T03:40:58;19.00;;;10.73;;
32321;SDS011;61553;48.994;8.940;2022-12-07T03:43:34;16.20;;;10.48;;
32321;SDS011;61553;48.994;8.940;2022-12-07T03:48:59;19.77;;;10.60;;
32321;SDS011;61553;48.994;8.940;2022-12-07T03:54:45;21.15;;;11.00;;
32321;SDS011;61553;48.994;8.940;2022-12-07T03:57:31;18.40;;;10.48;;
32321;SDS011;61553;48.994;8.940;2022-12-07T04:00:00;19.25;;;10.45;;
32321;SDS011;61553;48.994;8.940;2022-12-07T04:02:29;19.77;;;10.82;;
32321;SDS011;61553;48.994;8.940;2022-12-07T04:04:55;19.95;;;10.68;;
32321;SDS011;61553;48.994;8.940;2022-12-07T04:07:21;18.00;;;9.95;;
32321;SDS011;61553;48.994;8.940;2022-12-07T04:09:47;18.33;;;10.30;;
32321;SDS011;61553;48.994;8.940;2022-12-07T04:12:12;18.08;;;10.02;;
32321;SDS011;61553;48.994;8.940;2022-12-07T04:14:38;16.90;;;10.15;;
32321;SDS011;61553;48.994;8.940;2022-12-07T04:17:04;17.63;;;10.00;;
32321;SDS011;61553;48.994;8.940;2022-12-07T04:19:31;17.85;;;9.65;;
32321;SDS011;61553;48.994;8.940;2022-12-07T04:21:59;17.20;;;9.85;;
32321;SDS011;61553;48.994;8.940;2022-12-07T04:24:26;17.27;;;9.90;;
32321;SDS011;61553;48.994;8.940;2022-12-07T04:26:52;18.27;;;9.98;;
32321;SDS011;61553;48.994;8.940;2022-12-07T04:29:18;19.63;;;10.05;;
32321;SDS011;61553;48.994;8.940;2022-12-07T04:31:44;15.13;;;9.68;;
32321;SDS011;61553;48.994;8.940;2022-12-07T04:34:10;18.70;;;9.80;;
32321;SDS011;61553;48.994;8.940;2022-12-07T04:36:37;17.55;;;9.77;;
32321;SDS011;61553;48.994;8.940;2022-12-07T04:39:03;16.15;;;9.27;;
32321;SDS011;61553;48.994;8.940;2022-12-07T04:41:30;21.17;;;9.50;;
32321;SDS011;61553;48.994;8.940;2022-12-07T04:43:57;16.02;;;9.55;;
32321;SDS011;61553;48.994;8.940;2022-12-07T04:46:26;16.98;;;9.20;;
32321;SDS011;61553;48.994;8.940;2022-12-07T04:48:53;18.52;;;8.95;;
32321;SDS011;61553;48.994;8.940;2022-12-07T04:51:20;16.73;;;9.10;;
32321;SDS011;61553;48.994;8.940;2022-12-07T04:53:50;18.75;;;10.63;;
32321;SDS011;61553;48.994;8.940;2022-12-07T04:56:17;16.70;;;9.30;;
32321;SDS011;61553;48.994;8.940;2022-12-07T04:58:43;19.92;;;10.68;;
32321;SDS011;61553;48.994;8.940;2022-12-07T05:01:10;16.63;;;9.75;;
32321;SDS011;61553;48.994;8.940;2022-12-07T05:03:37;21.95;;;10.48;;
32321;SDS011;61553;48.994;8.940;2022-12-07T05:06:02;18.10;;;9.90;;
32321;SDS011;61553;48.994;8.940;2022-12-07T05:08:29;18.17;;;10.80;;
32321;SDS011;61553;48.994;8.940;2022-12-07T05:10:54;19.75;;;10.70;;
32321;SDS011;61553;48.994;8.940;2022-12-07T05:13:20;20.35;;;10.55;;
32321;SDS011;61553;48.994;8.940;2022-12-07T05:15:46;19.52;;;10.23;;
32321;SDS011;61553;48.994;8.940;2022-12-07T05:18:13;24.25;;;11.55;;
32321;SDS011;61553;48.994;8.940;2022-12-07T05:20:39;22.70;;;11.80;;
32321;SDS011;61553;48.994;8.940;2022-12-07T05:23:05;21.95;;;10.52;;
32321;SDS011;61553;48.994;8.940;2022-12-07T05:25:31;21.35;;;11.20;;
32321;SDS011;61553;48.994;8.940;2022-12-07T05:27:57;18.52;;;10.07;;
32321;SDS011;61553;48.994;8.940;2022-12-07T05:30:23;19.63;;;10.13;;
32321;SDS011;61553;48.994;8.940;2022-12-07T05:32:50;21.25;;;12.02;;
32321;SDS011;61553;48.994;8.940;2022-12-07T05:35:16;18.77;;;10.80;;
32321;SDS011;61553;48.994;8.940;2022-12-07T05:37:42;19.13;;;11.00;;
32321;SDS011;61553;48.994;8.940;2022-12-07T05:40:08;24.48;;;12.45;;
32321;SDS011;61553;48.994;8.940;2022-12-07T05:42:34;17.67;;;11.02;;
32321;SDS011;61553;48.994;8.940;2022-12-07T05:45:00;20.17;;;12.02;;
32321;SDS011;61553;48.994;8.940;2022-12-07T05:47:26;20.38;;;11.13;;
32321;SDS011;61553;48.994;8.940;2022-12-07T05:49:52;21.02;;;10.98;;
32321;SDS011;61553;48.994;8.940;2022-12-07T05:52:17;21.92;;;11.32;;
32321;SDS011;61553;48.994;8.940;2022-12-07T05:54:43;22.33;;;11.27;;
32321;SDS011;61553;48.994;8.940;2022-12-07T05:57:09;19.70;;;10.55;;
32321;SDS011;61553;48.994;8.940;2022-12-07T05:59:35;19.73;;;10.75;;
32321;SDS011;61553;48.994;8.940;2022-12-07T06:02:03;22.75;;;11.30;;
32321;SDS011;61553;48.994;8.940;2022-12-07T06:04:41;17.80;;;10.02;;
32321;SDS011;61553;48.994;8.940;2022-12-07T06:07:10;18.52;;;10.43;;
32321;SDS011;61553;48.994;8.940;2022-12-07T06:09:36;16.15;;;10.18;;
32321;SDS011;61553;48.994;8.940;2022-12-07T06:12:03;16.85;;;10.07;;
32321;SDS011;61553;48.994;8.940;2022-12-07T06:14:48;17.88;;;10.25;;
32321;SDS011;61553;48.994;8.940;2022-12-07T06:17:14;19.00;;;10.00;;
32321;SDS011;61553;48.994;8.940;2022-12-07T06:19:40;20.35;;;11.07;;
32321;SDS011;61553;48.994;8.940;2022-12-07T06:22:06;18.02;;;9.60;;
32321;SDS011;61553;48.994;8.940;2022-12-07T06:24:34;20.45;;;10.38;;
32321;SDS011;61553;48.994;8.940;2022-12-07T06:27:00;19.27;;;10.02;;
32321;SDS011;61553;48.994;8.940;2022-12-07T06:29:25;17.20;;;9.38;;
32321;SDS011;61553;48.994;8.940;2022-12-07T06:31:51;19.63;;;10.45;;
32321;SDS011;61553;48.994;8.940;2022-12-07T06:34:18;17.55;;;9.65;;
32321;SDS011;61553;48.994;8.940;2022-12-07T06:36:45;19.40;;;11.45;;
32321;SDS011;61553;48.994;8.940;2022-12-07T06:39:16;17.80;;;9.23;;
32321;SDS011;61553;48.994;8.940;2022-12-07T06:41:42;17.73;;;10.05;;
32321;SDS011;61553;48.994;8.940;2022-12-07T06:44:08;16.52;;;9.88;;
32321;SDS011;61553;48.994;8.940;2022-12-07T06:46:34;15.77;;;9.23;;
32321;SDS011;61553;48.994;8.940;2022-12-07T06:49:02;16.33;;;9.00;;
32321;SDS011;61553;48.994;8.940;2022-12-07T06:51:29;16.45;;;9.20;;
32321;SDS011;61553;48.994;8.940;2022-12-07T06:53:55;16.27;;;9.40;;
32321;SDS011;61553;48.994;8.940;2022-12-07T06:56:21;16.67;;;9.00;;
32321;SDS011;61553;48.994;8.940;2022-12-07T06:58:48;14.25;;;8.50;;
32321;SDS011;61553;48.994;8.940;2022-12-07T07:01:14;17.25;;;8.50;;
32321;SDS011;61553;48.994;8.940;2022-12-07T07:03:42;18.50;;;8.88;;
32321;SDS011;61553;48.994;8.940;2022-12-07T07:06:09;13.57;;;7.72;;
32321;SDS011;61553;48.994;8.940;2022-12-07T07:08:35;15.32;;;8.63;;
32321;SDS011;61553;48.994;8.940;2022-12-07T07:11:02;14.23;;;8.00;;
32321;SDS011;61553;48.994;8.940;2022-12-07T07:13:28;13.05;;;7.85;;
32321;SDS011;61553;48.994;8.940;2022-12-07T07:15:54;15.18;;;8.60;;
32321;SDS011;61553;48.994;8.940;2022-12-07T07:18:20;16.50;;;7.88;;
32321;SDS011;61553;48.994;8.940;2022-12-07T07:20:46;15.63;;;7.75;;
32321;SDS011;61553;48.994;8.940;2022-12-07T07:23:12;15.95;;;8.48;;
32321;SDS011;61553;48.994;8.940;2022-12-07T07:25:38;16.17;;;8.07;;
32321;SDS011;61553;48.994;8.940;2022-12-07T07:28:03;15.20;;;7.90;;
32321;SDS011;61553;48.994;8.940;2022-12-07T07:30:29;14.63;;;7.53;;
32321;SDS011;61553;48.994;8.940;2022-12-07T07:32:56;12.98;;;7.32;;
32321;SDS011;61553;48.994;8.940;2022-12-07T07:35:23;12.55;;;7.43;;
32321;SDS011;61553;48.994;8.940;2022-12-07T07:37:49;13.63;;;7.63;;
32321;SDS011;61553;48.994;8.940;2022-12-07T07:40:15;15.20;;;7.65;;
32321;SDS011;61553;48.994;8.940;2022-12-07T07:42:41;13.07;;;7.38;;
32321;SDS011;61553;48.994;8.940;2022-12-07T07:45:06;14.20;;;8.23;;
32321;SDS011;61553;48.994;8.940;2022-12-07T07:47:33;21.60;;;11.90;;
32321;SDS011;61553;48.994;8.940;2022-12-07T07:49:58;16.38;;;8.65;;
32321;SDS011;61553;48.994;8.940;2022-12-07T07:52:24;15.55;;;8.70;;
32321;SDS011;61553;48.994;8.940;2022-12-07T07:54:50;15.57;;;8.50;;
32321;SDS011;61553;48.994;8.940;2022-12-07T07:57:16;12.75;;;7.53;;
32321;SDS011;61553;48.994;8.940;2022-12-07T07:59:42;11.88;;;6.93;;
32321;SDS011;61553;48.994;8.940;2022-12-07T08:02:18;14.13;;;7.55;;
32321;SDS011;61553;48.994;8.940;2022-12-07T08:04:45;14.98;;;7.53;;
32321;SDS011;61553;48.994;8.940;2022-12-07T08:07:11;12.30;;;6.00;;
32321;SDS011;61553;48.994;8.940;2022-12-07T08:09:37;12.43;;;6.55;;
32321;SDS011;61553;48.994;8.940;2022-12-07T08:12:04;28.75;;;15.57;;
32321;SDS011;61553;48.994;8.940;2022-12-07T08:14:30;14.52;;;8.30;;
32321;SDS011;61553;48.994;8.940;2022-12-07T08:16:56;10.93;;;5.78;;
32321;SDS011;61553;48.994;8.940;2022-12-07T08:19:22;10.50;;;6.10;;
32321;SDS011;61553;48.994;8.940;2022-12-07T08:21:47;11.63;;;6.75;;
32321;SDS011;61553;48.994;8.940;2022-12-07T08:24:14;12.18;;;6.25;;
32321;SDS011;61553;48.994;8.940;2022-12-07T08:26:40;11.68;;;6.13;;
32321;SDS011;61553;48.994;8.940;2022-12-07T08:29:06;13.07;;;6.00;;
32321;SDS011;61553;48.994;8.940;2022-12-07T08:31:31;10.00;;;5.07;;
32321;SDS011;61553;48.994;8.940;2022-12-07T08:33:57;11.10;;;5.57;;
32321;SDS011;61553;48.994;8.940;2022-12-07T08:36:23;12.90;;;7.97;;
32321;SDS011;61553;48.994;8.940;2022-12-07T08:38:49;13.13;;;7.95;;
32321;SDS011;61553;48.994;8.940;2022-12-07T08:41:15;10.48;;;6.05;;
32321;SDS011;61553;48.994;8.940;2022-12-07T08:43:41;11.68;;;7.30;;
32321;SDS011;61553;48.994;8.940;2022-12-07T08:51:42;17.92;;;9.40;;
32321;SDS011;61553;48.994;8.940;2022-12-07T08:54:09;14.57;;;6.72;;
32321;SDS011;61553;48.994;8.940;2022-12-07T08:56:38;14.00;;;9.32;;
32321;SDS011;61553;48.994;8.940;2022-12-07T08:59:04;13.15;;;8.88;;
32321;SDS011;61553;48.994;8.940;2022-12-07T09:01:31;10.43;;;6.43;;
32321;SDS011;61553;48.994;8.940;2022-12-07T09:03:57;10.48;;;5.95;;
32321;SDS011;61553;48.994;8.940;2022-12-07T09:06:23;11.18;;;6.38;;
32321;SDS011;61553;48.994;8.940;2022-12-07T09:08:50;8.00;;;4.55;;
32321;SDS011;61553;48.994;8.940;2022-12-07T09:11:18;10.40;;;5.18;;
32321;SDS011;61553;48.994;8.940;2022-12-07T09:13:44;9.95;;;5.47;;
32321;SDS011;61553;48.994;8.940;2022-12-07T09:16:10;10.48;;;5.38;;
32321;SDS011;61553;48.994;8.940;2022-12-07T09:18:35;8.95;;;4.85;;
32321;SDS011;61553;48.994;8.940;2022-12-07T09:21:03;12.90;;;5.18;;
32321;SDS011;61553;48.994;8.940;2022-12-07T09:23:28;8.15;;;4.68;;
32321;SDS011;61553;48.994;8.940;2022-12-07T09:25:54;8.25;;;4.88;;
32321;SDS011;61553;48.994;8.940;2022-12-07T09:28:20;11.75;;;5.50;;
32321;SDS011;61553;48.994;8.940;2022-12-07T09:30:48;8.88;;;4.93;;
32321;SDS011;61553;48.994;8.940;2022-12-07T09:33:14;9.48;;;4.72;;
32321;SDS011;61553;48.994;8.940;2022-12-07T09:35:50;7.75;;;3.92;;
32321;SDS011;61553;48.994;8.940;2022-12-07T09:38:16;8.23;;;4.18;;
32321;SDS011;61553;48.994;8.940;2022-12-07T09:40:43;6.30;;;3.53;;
32321;SDS011;61553;48.994;8.940;2022-12-07T09:43:16;7.63;;;4.07;;
32321;SDS011;61553;48.994;8.940;2022-12-07T09:45:45;7.45;;;4.22;;
32321;SDS011;61553;48.994;8.940;2022-12-07T09:48:25;8.95;;;4.15;;
32321;SDS011;61553;48.994;8.940;2022-12-07T09:50:57;10.35;;;4.95;;
32321;SDS011;61553;48.994;8.940;2022-12-07T09:53:29;9.95;;;4.88;;
32321;SDS011;61553;48.994;8.940;2022-12-07T09:55:58;9.95;;;5.10;;
32321;SDS011;61553;48.994;8.940;2022-12-07T09:58:25;9.25;;;5.63;;
32321;SDS011;61553;48.994;8.940;2022-12-07T10:00:56;12.35;;;5.75;;
32321;SDS011;61553;48.994;8.940;2022-12-07T10:03:31;11.68;;;6.00;;
32321;SDS011;61553;48.994;8.940;2022-12-07T10:05:57;9.02;;;5.43;;
32321;SDS011;61553;48.994;8.940;2022-12-07T10:08:24;9.98;;;4.95;;
32321;SDS011;61553;48.994;8.940;2022-12-07T10:10:51;11.88;;;5.82;;
32321;SDS011;61553;48.994;8.940;2022-12-07T10:13:20;9.60;;;5.53;;
32321;SDS011;61553;48.994;8.940;2022-12-07T10:15:56;8.15;;;5.20;;
32321;SDS011;61553;48.994;8.940;2022-12-07T10:21:13;9.50;;;5.45;;
32321;SDS011;61553;48.994;8.940;2022-12-07T10:26:35;11.82;;;7.38;;
32321;SDS011;61553;48.994;8.940;2022-12-07T10:31:58;14.50;;;8.00;;
32321;SDS011;61553;48.994;8.940;2022-12-07T10:34:30;12.90;;;7.13;;
32321;SDS011;61553;48.994;8.940;2022-12-07T10:37:15;13.15;;;6.53;;
32321;SDS011;61553;48.994;8.940;2022-12-07T10:39:52;12.13;;;7.15;;
32321;SDS011;61553;48.994;8.940;2022-12-07T10:44:47;15.35;;;8.40;;
32321;SDS011;61553;48.994;8.940;2022-12-07T11:11:55;16.50;;;8.75;;
32321;SDS011;61553;48.994;8.940;2022-12-07T11:14:37;12.82;;;7.40;;
32321;SDS011;61553;48.994;8.940;2022-12-07T11:22:51;13.70;;;7.80;;
32321;SDS011;61553;48.994;8.940;2022-12-07T11:25:34;13.70;;;8.63;;
32321;SDS011;61553;48.994;8.940;2022-12-07T11:31:07;20.73;;;10.65;;
32321;SDS011;61553;48.994;8.940;2022-12-07T11:33:45;14.88;;;7.95;;
32321;SDS011;61553;48.994;8.940;2022-12-07T11:36:37;19.27;;;10.93;;
32321;SDS011;61553;48.994;8.940;2022-12-07T11:42:06;21.92;;;11.00;;
32321;SDS011;61553;48.994;8.940;2022-12-07T11:44:47;24.80;;;10.85;;
32321;SDS011;61553;48.994;8.940;2022-12-07T11:47:25;21.20;;;10.10;;
32321;SDS011;61553;48.994;8.940;2022-12-07T11:58:32;16.45;;;9.30;;
32321;SDS011;61553;48.994;8.940;2022-12-07T12:03:33;16.65;;;9.68;;
32321;SDS011;61553;48.994;8.940;2022-12-07T12:06:03;15.15;;;8.65;;
32321;SDS011;61553;48.994;8.940;2022-12-07T12:08:30;16.00;;;8.40;;
32321;SDS011;61553;48.994;8.940;2022-12-07T12:13:49;17.42;;;9.25;;
32321;SDS011;61553;48.994;8.940;2022-12-07T12:19:25;17.30;;;9.48;;
32321;SDS011;61553;48.994;8.940;2022-12-07T12:21:56;17.45;;;9.80;;
32321;SDS011;61553;48.994;8.940;2022-12-07T12:24:29;18.75;;;9.95;;
32321;SDS011;61553;48.994;8.940;2022-12-07T12:27:17;19.98;;;10.70;;
32321;SDS011;61553;48.994;8.940;2022-12-07T12:29:52;25.75;;;11.82;;
32321;SDS011;61553;48.994;8.940;2022-12-07T12:32:21;19.58;;;10.93;;
32321;SDS011;61553;48.994;8.940;2022-12-07T12:35:00;22.13;;;11.75;;
32321;SDS011;61553;48.994;8.940;2022-12-07T12:42:55;22.25;;;11.45;;
32321;SDS011;61553;48.994;8.940;2022-12-07T12:47:56;20.48;;;11.98;;
32321;SDS011;61553;48.994;8.940;2022-12-07T12:50:34;21.23;;;11.82;;
32321;SDS011;61553;48.994;8.940;2022-12-07T12:53:03;30.15;;;14.45;;
32321;SDS011;61553;48.994;8.940;2022-12-07T13:00:42;21.88;;;11.73;;
32321;SDS011;61553;48.994;8.940;2022-12-07T13:03:30;17.15;;;10.52;;
32321;SDS011;61553;48.994;8.940;2022-12-07T13:08:50;19.13;;;10.32;;
32321;SDS011;61553;48.994;8.940;2022-12-07T13:11:32;19.63;;;10.77;;
32321;SDS011;61553;48.994;8.940;2022-12-07T13:17:02;16.85;;;9.60;;
32321;SDS011;61553;48.994;8.940;2022-12-07T13:20:02;23.35;;;10.88;;
32321;SDS011;61553;48.994;8.940;2022-12-07T13:24:56;19.88;;;9.75;;
32321;SDS011;61553;48.994;8.940;2022-12-07T13:27:22;15.35;;;9.88;;
32321;SDS011;61553;48.994;8.940;2022-12-07T13:29:49;18.30;;;9.93;;
32321;SDS011;61553;48.994;8.940;2022-12-07T13:32:23;18.95;;;11.02;;
32321;SDS011;61553;48.994;8.940;2022-12-07T13:34:50;16.92;;;9.35;;
32321;SDS011;61553;48.994;8.940;2022-12-07T13:39:52;23.10;;;11.80;;
32321;SDS011;61553;48.994;8.940;2022-12-07T13:42:27;25.83;;;12.57;;
32321;SDS011;61553;48.994;8.940;2022-12-07T13:44:55;25.40;;;13.07;;
32321;SDS011;61553;48.994;8.940;2022-12-07T13:47:31;18.50;;;10.93;;
32321;SDS011;61553;48.994;8.940;2022-12-07T13:52:48;24.00;;;11.93;;
32321;SDS011;61553;48.994;8.940;2022-12-07T13:55:15;22.38;;;11.98;;
32321;SDS011;61553;48.994;8.940;2022-12-07T13:57:42;21.60;;;11.25;;
32321;SDS011;61553;48.994;8.940;2022-12-07T14:00:16;24.48;;;12.27;;
32321;SDS011;61553;48.994;8.940;2022-12-07T14:02:57;21.67;;;11.10;;
32321;SDS011;61553;48.994;8.940;2022-12-07T14:07:55;19.25;;;10.25;;
32321;SDS011;61553;48.994;8.940;2022-12-07T14:13:34;19.42;;;11.05;;
32321;SDS011;61553;48.994;8.940;2022-12-07T14:16:41;19.73;;;10.18;;
32321;SDS011;61553;48.994;8.940;2022-12-07T14:19:05;21.85;;;13.45;;
32321;SDS011;61553;48.994;8.940;2022-12-07T14:22:05;20.85;;;10.65;;
32321;SDS011;61553;48.994;8.940;2022-12-07T14:24:40;21.35;;;11.93;;
32321;SDS011;61553;48.994;8.940;2022-12-07T14:27:15;22.52;;;11.98;;
32321;SDS011;61553;48.994;8.940;2022-12-07T14:29:46;23.45;;;12.52;;
32321;SDS011;61553;48.994;8.940;2022-12-07T14:37:26;24.13;;;13.10;;
32321;SDS011;61553;48.994;8.940;2022-12-07T14:39:53;27.15;;;14.20;;
32321;SDS011;61553;48.994;8.940;2022-12-07T14:42:19;32.33;;;16.75;;
32321;SDS011;61553;48.994;8.940;2022-12-07T14:44:46;39.72;;;18.20;;
32321;SDS011;61553;48.994;8.940;2022-12-07T14:47:12;32.33;;;17.15;;
32321;SDS011;61553;48.994;8.940;2022-12-07T14:49:38;42.63;;;20.30;;
32321;SDS011;61553;48.994;8.940;2022-12-07T14:52:04;33.95;;;15.68;;
32321;SDS011;61553;48.994;8.940;2022-12-07T14:54:31;42.00;;;20.65;;
32321;SDS011;61553;48.994;8.940;2022-12-07T14:56:58;43.47;;;20.00;;
32321;SDS011;61553;48.994;8.940;2022-12-07T14:59:23;31.23;;;16.52;;
32321;SDS011;61553;48.994;8.940;2022-12-07T15:01:49;30.98;;;16.10;;
32321;SDS011;61553;48.994;8.940;2022-12-07T15:04:15;28.02;;;15.40;;
32321;SDS011;61553;48.994;8.940;2022-12-07T15:06:41;29.40;;;15.10;;
32321;SDS011;61553;48.994;8.940;2022-12-07T15:09:09;27.63;;;14.30;;
32321;SDS011;61553;48.994;8.940;2022-12-07T15:11:36;37.80;;;16.38;;
32321;SDS011;61553;48.994;8.940;2022-12-07T15:14:01;27.55;;;15.07;;
32321;SDS011;61553;48.994;8.940;2022-12-07T15:16:34;27.00;;;15.20;;
32321;SDS011;61553;48.994;8.940;2022-12-07T15:19:01;29.63;;;14.55;;
32321;SDS011;61553;48.994;8.940;2022-12-07T15:21:26;22.92;;;13.57;;
32321;SDS011;61553;48.994;8.940;2022-12-07T15:23:52;27.33;;;14.18;;
32321;SDS011;61553;48.994;8.940;2022-12-07T15:26:18;29.23;;;13.45;;
32321;SDS011;61553;48.994;8.940;2022-12-07T15:28:44;25.80;;;13.05;;
32321;SDS011;61553;48.994;8.940;2022-12-07T15:31:13;24.48;;;13.57;;
32321;SDS011;61553;48.994;8.940;2022-12-07T15:33:40;28.40;;;13.45;;
32321;SDS011;61553;48.994;8.940;2022-12-07T15:36:06;28.10;;;13.50;;
32321;SDS011;61553;48.994;8.940;2022-12-07T15:38:32;28.17;;;14.02;;
32321;SDS011;61553;48.994;8.940;2022-12-07T15:40:57;23.80;;;13.75;;
32321;SDS011;61553;48.994;8.940;2022-12-07T15:43:23;26.33;;;13.60;;
32321;SDS011;61553;48.994;8.940;2022-12-07T15:46:07;25.63;;;13.75;;
32321;SDS011;61553;48.994;8.940;2022-12-07T15:48:33;22.95;;;12.38;;
32321;SDS011;61553;48.994;8.940;2022-12-07T15:51:05;24.88;;;13.00;;
32321;SDS011;61553;48.994;8.940;2022-12-07T15:53:32;30.95;;;14.23;;
32321;SDS011;61553;48.994;8.940;2022-12-07T15:55:59;23.48;;;12.88;;
32321;SDS011;61553;48.994;8.940;2022-12-07T15:58:25;23.33;;;12.70;;
32321;SDS011;61553;48.994;8.940;2022-12-07T16:00:51;23.80;;;13.50;;
32321;SDS011;61553;48.994;8.940;2022-12-07T16:03:17;25.52;;;13.75;;
32321;SDS011;61553;48.994;8.940;2022-12-07T16:05:48;29.48;;;14.52;;
32321;SDS011;61553;48.994;8.940;2022-12-07T16:08:14;31.98;;;15.88;;
32321;SDS011;61553;48.994;8.940;2022-12-07T16:10:40;42.22;;;19.23;;
32321;SDS011;61553;48.994;8.940;2022-12-07T16:13:08;21.35;;;12.27;;
32321;SDS011;61553;48.994;8.940;2022-12-07T16:15:40;31.88;;;14.15;;
32321;SDS011;61553;48.994;8.940;2022-12-07T16:18:06;30.80;;;15.27;;
32321;SDS011;61553;48.994;8.940;2022-12-07T16:20:32;28.27;;;13.38;;
32321;SDS011;61553;48.994;8.940;2022-12-07T16:22:58;24.13;;;13.75;;
32321;SDS011;61553;48.994;8.940;2022-12-07T16:25:23;36.38;;;18.73;;
32321;SDS011;61553;48.994;8.940;2022-12-07T16:27:50;32.38;;;17.75;;
32321;SDS011;61553;48.994;8.940;2022-12-07T16:30:17;39.60;;;21.88;;
32321;SDS011;61553;48.994;8.940;2022-12-07T16:32:43;37.58;;;20.75;;
32321;SDS011;61553;48.994;8.940;2022-12-07T16:35:08;45.05;;;24.55;;
32321;SDS011;61553;48.994;8.940;2022-12-07T16:37:34;39.97;;;22.33;;
32321;SDS011;61553;48.994;8.940;2022-12-07T16:40:00;37.92;;;21.42;;
32321;SDS011;61553;48.994;8.940;2022-12-07T16:42:26;37.47;;;18.95;;
32321;SDS011;61553;48.994;8.940;2022-12-07T16:44:52;31.13;;;17.70;;
32321;SDS011;61553;48.994;8.940;2022-12-07T16:47:17;31.83;;;19.20;;
32321;SDS011;61553;48.994;8.940;2022-12-07T16:49:43;30.48;;;16.27;;
32321;SDS011;61553;48.994;8.940;2022-12-07T16:52:09;30.52;;;16.75;;